createdAt,value
2023-05-14T00:02:07.590Z,16.95
2023-05-14T00:04:34.528Z,16.93
2023-05-14T00:07:01.286Z,16.89
2023-05-14T00:09:28.184Z,16.91
2023-05-14T00:11:54.905Z,16.94
2023-05-14T00:14:21.839Z,16.93
2023-05-14T00:16:49.016Z,16.99
2023-05-14T00:19:15.874Z,17.01
2023-05-14T00:21:42.697Z,17.01
2023-05-14T00:24:11.538Z,17.01
2023-05-14T00:26:38.336Z,17.00
2023-05-14T00:29:05.155Z,16.94
2023-05-14T00:31:31.918Z,16.91
2023-05-14T00:33:58.681Z,16.90
2023-05-14T00:36:27.522Z,16.90
2023-05-14T00:38:54.293Z,16.89
2023-05-14T00:41:21.732Z,16.86
2023-05-14T00:43:48.519Z,16.84
2023-05-14T00:46:16.513Z,16.86
2023-05-14T00:48:44.230Z,16.89
2023-05-14T00:51:11.668Z,16.88
2023-05-14T00:53:38.617Z,16.88
2023-05-14T00:56:06.063Z,16.87
2023-05-14T00:58:32.889Z,16.87
2023-05-14T01:00:59.786Z,16.86
2023-05-14T01:03:27.004Z,16.83
2023-05-14T01:06:05.969Z,16.83
2023-05-14T01:09:01.669Z,16.86
2023-05-14T01:11:39.525Z,16.86
2023-05-14T01:14:32.410Z,16.81
2023-05-14T01:17:02.333Z,16.75
2023-05-14T01:19:42.435Z,16.75
2023-05-14T01:22:10.117Z,16.77
2023-05-14T01:24:36.967Z,16.80
2023-05-14T01:27:28.252Z,16.77
2023-05-14T01:30:18.125Z,16.68
2023-05-14T01:32:48.734Z,16.60
2023-05-14T01:35:16.732Z,16.51
2023-05-14T01:37:44.796Z,16.42
2023-05-14T01:40:14.082Z,16.39
2023-05-14T01:42:41.529Z,16.37
2023-05-14T01:45:08.706Z,16.38
2023-05-14T01:47:35.473Z,16.36
2023-05-14T01:50:02.152Z,16.33
2023-05-14T01:52:28.946Z,16.29
2023-05-14T01:54:55.614Z,16.22
2023-05-14T01:57:25.169Z,16.15
2023-05-14T01:59:51.999Z,16.09
2023-05-14T02:02:18.695Z,16.02
2023-05-14T02:04:45.672Z,15.99
2023-05-14T02:07:12.644Z,15.99
2023-05-14T02:09:40.212Z,15.91
2023-05-14T02:12:08.519Z,15.80
2023-05-14T02:14:35.441Z,15.72
2023-05-14T02:17:03.535Z,15.66
2023-05-14T02:19:45.187Z,15.63
2023-05-14T02:22:17.657Z,15.59
2023-05-14T02:25:01.521Z,15.56
2023-05-14T02:27:30.612Z,15.46
2023-05-14T02:30:00.778Z,15.47
2023-05-14T02:32:28.444Z,15.51
2023-05-14T02:34:55.491Z,15.48
2023-05-14T02:37:22.318Z,15.44
2023-05-14T02:39:53.456Z,15.40
2023-05-14T02:42:22.852Z,15.30
2023-05-14T02:44:49.680Z,15.21
2023-05-14T02:47:16.449Z,15.08
2023-05-14T02:49:43.161Z,15.04
2023-05-14T02:52:09.983Z,15.04
2023-05-14T02:54:36.752Z,15.00
2023-05-14T02:57:03.621Z,15.00
2023-05-14T02:59:31.455Z,14.94
2023-05-14T03:01:58.851Z,14.89
2023-05-14T03:04:25.939Z,14.82
2023-05-14T03:06:52.675Z,14.75
2023-05-14T03:09:19.945Z,14.68
2023-05-14T03:11:46.665Z,14.63
2023-05-14T03:14:15.526Z,14.59
2023-05-14T03:16:42.534Z,14.51
2023-05-14T03:19:10.114Z,14.49
2023-05-14T03:21:37.092Z,14.49
2023-05-14T03:24:03.904Z,14.45
2023-05-14T03:26:30.613Z,14.43
2023-05-14T03:28:57.277Z,14.41
2023-05-14T03:31:25.002Z,14.41
2023-05-14T03:33:51.859Z,14.40
2023-05-14T03:36:18.737Z,14.35
2023-05-14T03:38:47.654Z,14.29
2023-05-14T03:41:15.537Z,14.27
2023-05-14T03:43:42.582Z,14.28
2023-05-14T03:46:09.637Z,14.26
2023-05-14T03:48:36.666Z,14.23
2023-05-14T03:51:04.890Z,14.19
2023-05-14T03:53:31.696Z,14.18
2023-05-14T03:55:58.528Z,14.19
2023-05-14T03:58:25.517Z,14.16
2023-05-14T04:00:53.273Z,14.14
2023-05-14T04:03:20.057Z,14.11
2023-05-14T04:05:46.899Z,14.08
2023-05-14T04:08:13.780Z,14.07
2023-05-14T04:10:40.742Z,14.07
2023-05-14T04:13:07.741Z,14.04
2023-05-14T04:15:38.172Z,14.05
2023-05-14T04:18:05.489Z,14.07
2023-05-14T04:20:32.781Z,14.09
2023-05-14T04:22:59.682Z,14.10
2023-05-14T04:25:27.573Z,14.11
2023-05-14T04:27:54.634Z,14.12
2023-05-14T04:30:21.665Z,14.14
2023-05-14T04:32:48.642Z,14.25
2023-05-14T04:35:15.369Z,14.34
2023-05-14T04:37:42.178Z,14.48
2023-05-14T04:40:11.380Z,14.56
2023-05-14T04:42:38.850Z,14.62
2023-05-14T04:45:09.307Z,14.71
2023-05-14T04:47:36.161Z,14.76
2023-05-14T04:50:03.078Z,14.82
2023-05-14T04:52:29.771Z,14.92
2023-05-14T04:54:56.947Z,14.99
2023-05-14T04:57:23.721Z,15.10
2023-05-14T04:59:53.377Z,15.22
2023-05-14T05:02:20.268Z,15.36
2023-05-14T05:04:47.261Z,15.38
2023-05-14T05:07:14.661Z,15.48
2023-05-14T05:09:41.356Z,15.56
2023-05-14T05:12:08.412Z,15.60
2023-05-14T05:14:35.143Z,15.60
2023-05-14T05:17:01.857Z,15.59
2023-05-14T05:19:39.504Z,15.57
2023-05-14T05:22:06.874Z,15.53
2023-05-14T05:24:33.608Z,15.55
2023-05-14T05:27:00.529Z,15.57
2023-05-14T05:29:27.244Z,15.62
2023-05-14T05:31:54.070Z,15.66
2023-05-14T05:34:20.933Z,15.68
2023-05-14T05:36:47.652Z,15.69
2023-05-14T05:39:14.457Z,15.68
2023-05-14T05:41:41.133Z,15.70
2023-05-14T05:44:08.005Z,15.74
2023-05-14T05:46:34.753Z,15.76
2023-05-14T05:49:01.497Z,15.75
2023-05-14T05:51:28.214Z,15.76
2023-05-14T05:53:54.996Z,15.79
2023-05-14T05:56:22.130Z,15.86
2023-05-14T05:58:49.344Z,15.94
2023-05-14T06:01:17.357Z,16.00
2023-05-14T06:03:46.978Z,16.00
2023-05-14T06:06:22.939Z,16.12
2023-05-14T06:08:52.460Z,16.27
2023-05-14T06:11:19.172Z,16.43
2023-05-14T06:13:46.174Z,16.62
2023-05-14T06:16:12.878Z,16.74
2023-05-14T06:18:39.647Z,16.75
2023-05-14T06:21:09.428Z,16.75
2023-05-14T06:23:36.193Z,16.87
2023-05-14T06:26:02.849Z,16.96
2023-05-14T06:28:29.502Z,16.97
2023-05-14T06:30:56.308Z,17.03
2023-05-14T06:33:29.743Z,17.07
2023-05-14T06:36:07.107Z,17.07
2023-05-14T06:38:33.894Z,17.10
2023-05-14T06:41:00.781Z,17.21
2023-05-14T06:43:27.582Z,17.36
2023-05-14T06:45:58.176Z,17.59
2023-05-14T06:48:30.294Z,17.78
2023-05-14T06:51:00.479Z,17.94
2023-05-14T06:53:32.651Z,18.16
2023-05-14T06:56:02.621Z,18.43
2023-05-14T06:58:37.729Z,18.79
2023-05-14T07:01:20.170Z,19.10
2023-05-14T07:03:48.011Z,19.44
2023-05-14T07:06:16.189Z,19.82
2023-05-14T07:08:46.108Z,20.07
2023-05-14T07:11:16.282Z,20.22
2023-05-14T07:13:43.342Z,20.04
2023-05-14T07:16:10.537Z,19.60
2023-05-14T07:18:37.527Z,19.15
2023-05-14T07:21:07.612Z,18.84
2023-05-14T07:23:37.419Z,18.55
2023-05-14T07:26:06.010Z,18.42
2023-05-14T07:28:32.952Z,18.26
2023-05-14T07:30:59.971Z,18.30
2023-05-14T07:33:27.129Z,18.22
2023-05-14T07:35:54.322Z,18.11
2023-05-14T07:38:21.426Z,18.01
2023-05-14T07:40:48.231Z,17.97
2023-05-14T07:43:15.231Z,17.95
2023-05-14T07:45:42.051Z,18.02
2023-05-14T07:48:09.011Z,18.26
2023-05-14T07:50:38.205Z,19.36
2023-05-14T07:53:05.937Z,22.06
2023-05-14T07:55:32.897Z,23.89
2023-05-14T07:57:59.703Z,25.24
2023-05-14T08:00:26.735Z,24.44
2023-05-14T08:02:53.619Z,23.03
2023-05-14T08:05:20.641Z,22.01
2023-05-14T08:07:48.124Z,21.53
2023-05-14T08:10:14.866Z,21.27
2023-05-14T08:12:42.756Z,21.29
2023-05-14T08:15:09.952Z,22.24
2023-05-14T08:17:38.852Z,25.26
2023-05-14T08:20:06.902Z,26.82
2023-05-14T08:22:33.680Z,28.18
2023-05-14T08:25:01.645Z,28.47
2023-05-14T08:27:28.485Z,26.75
2023-05-14T08:29:56.132Z,25.37
2023-05-14T08:32:24.049Z,25.46
2023-05-14T08:34:51.882Z,25.29
2023-05-14T08:37:19.355Z,25.37
2023-05-14T08:39:46.745Z,26.18
2023-05-14T08:42:22.657Z,27.87
2023-05-14T08:44:53.641Z,29.11
2023-05-14T08:47:22.585Z,28.13
2023-05-14T08:50:09.891Z,26.83
2023-05-14T08:52:37.141Z,25.85
2023-05-14T08:55:06.508Z,26.73
2023-05-14T08:57:33.939Z,28.49
2023-05-14T09:00:02.149Z,30.24
2023-05-14T09:02:31.371Z,29.74
2023-05-14T09:05:00.807Z,27.98
2023-05-14T09:07:28.536Z,27.50
2023-05-14T09:09:56.229Z,26.76
2023-05-14T09:12:23.422Z,25.86
2023-05-14T09:14:50.923Z,25.31
2023-05-14T09:17:19.831Z,25.31
2023-05-14T09:19:49.128Z,25.72
2023-05-14T09:22:17.707Z,27.45
2023-05-14T09:24:45.135Z,27.10
2023-05-14T09:27:24.218Z,26.07
2023-05-14T09:29:51.529Z,25.07
2023-05-14T09:32:18.257Z,24.27
2023-05-14T09:34:45.139Z,23.67
2023-05-14T09:37:11.887Z,23.47
2023-05-14T09:39:39.124Z,23.39
2023-05-14T09:42:06.316Z,23.20
2023-05-14T09:44:33.249Z,22.97
2023-05-14T09:47:00.112Z,22.99
2023-05-14T09:49:26.849Z,23.28
2023-05-14T09:51:53.911Z,23.72
2023-05-14T09:54:20.779Z,23.90
2023-05-14T09:56:47.519Z,23.93
2023-05-14T09:59:14.326Z,24.11
2023-05-14T10:01:43.771Z,24.33
2023-05-14T10:04:11.988Z,24.97
2023-05-14T10:06:40.309Z,25.85
2023-05-14T10:09:16.994Z,26.80
2023-05-14T10:11:46.283Z,27.72
2023-05-14T10:14:24.582Z,31.40
2023-05-14T10:16:53.135Z,37.16
2023-05-14T10:19:25.564Z,40.88
2023-05-14T10:22:07.008Z,38.71
2023-05-14T10:24:35.804Z,35.10
2023-05-14T10:27:03.121Z,32.45
2023-05-14T10:29:34.764Z,30.51
2023-05-14T10:32:06.355Z,29.20
2023-05-14T10:34:45.696Z,28.02
2023-05-14T10:37:33.139Z,26.85
2023-05-14T10:40:05.789Z,25.90
2023-05-14T10:42:41.027Z,25.21
2023-05-14T10:45:08.997Z,24.60
2023-05-14T10:47:37.184Z,24.29
2023-05-14T10:50:06.487Z,24.16
2023-05-14T10:52:34.106Z,23.80
2023-05-14T10:55:07.828Z,23.50
2023-05-14T10:57:38.085Z,23.22
2023-05-14T11:00:09.006Z,23.07
2023-05-14T11:02:38.002Z,22.84
2023-05-14T11:05:11.014Z,22.57
2023-05-14T11:07:40.274Z,22.34
2023-05-14T11:10:09.514Z,22.15
2023-05-14T11:12:38.624Z,21.96
2023-05-14T11:15:11.225Z,21.82
2023-05-14T11:17:42.061Z,21.89
2023-05-14T11:20:10.669Z,22.04
2023-05-14T11:22:39.037Z,22.18
2023-05-14T11:25:07.113Z,22.29
2023-05-14T11:27:35.851Z,22.43
2023-05-14T11:30:03.900Z,22.54
2023-05-14T11:32:34.164Z,22.78
2023-05-14T11:35:02.563Z,22.92
2023-05-14T11:37:30.742Z,23.12
2023-05-14T11:40:01.535Z,23.38
2023-05-14T11:42:28.374Z,23.66
2023-05-14T11:44:55.444Z,23.86
2023-05-14T11:47:22.990Z,23.91
2023-05-14T11:49:50.210Z,23.95
2023-05-14T11:52:19.643Z,24.06
2023-05-14T11:54:47.064Z,24.23
2023-05-14T11:57:19.542Z,24.31
2023-05-14T11:59:49.920Z,24.32
2023-05-14T12:02:18.830Z,24.45
2023-05-14T12:04:54.039Z,24.64
2023-05-14T12:07:21.695Z,24.85
2023-05-14T12:09:50.118Z,25.05
2023-05-14T12:12:21.939Z,25.14
2023-05-14T12:14:50.350Z,25.10
2023-05-14T12:17:22.530Z,24.97
2023-05-14T12:19:52.050Z,24.93
2023-05-14T12:22:22.111Z,25.03
2023-05-14T12:25:02.802Z,25.12
2023-05-14T12:27:30.439Z,25.16
2023-05-14T12:30:27.481Z,25.42
2023-05-14T12:32:52.747Z,25.85
2023-05-14T12:35:21.295Z,26.35
2023-05-14T12:37:48.107Z,26.81
2023-05-14T12:40:14.932Z,26.76
2023-05-14T12:42:41.670Z,26.64
2023-05-14T12:45:08.912Z,26.82
2023-05-14T12:47:37.074Z,27.01
2023-05-14T12:50:05.145Z,27.08
2023-05-14T12:55:01.787Z,26.57
2023-05-14T12:57:29.853Z,26.51
2023-05-14T12:59:57.458Z,26.39
2023-05-14T13:02:25.587Z,26.27
2023-05-14T13:04:52.696Z,26.11
2023-05-14T13:07:19.768Z,25.89
2023-05-14T13:09:46.449Z,25.31
2023-05-14T13:12:13.130Z,24.86
2023-05-14T13:14:39.823Z,24.55
2023-05-14T13:17:08.173Z,24.45
2023-05-14T13:19:35.582Z,24.50
2023-05-14T13:22:02.497Z,24.51
2023-05-14T13:24:29.678Z,24.41
2023-05-14T13:26:56.669Z,24.25
2023-05-14T13:29:24.559Z,24.24
2023-05-14T13:31:53.241Z,24.10
2023-05-14T13:34:20.091Z,23.99
2023-05-14T13:36:48.609Z,23.93
2023-05-14T13:39:16.577Z,23.85
2023-05-14T13:41:43.661Z,23.79
2023-05-14T13:44:10.464Z,23.86
2023-05-14T13:46:37.860Z,23.93
2023-05-14T13:49:04.919Z,24.01
2023-05-14T13:51:33.126Z,24.30
2023-05-14T13:54:00.036Z,24.38
2023-05-14T13:56:27.790Z,24.65
2023-05-14T13:58:54.801Z,24.99
2023-05-14T14:01:23.912Z,25.22
2023-05-14T14:03:50.623Z,25.27
2023-05-14T14:06:17.489Z,24.92
2023-05-14T14:08:45.625Z,24.59
2023-05-14T14:11:16.239Z,24.22
2023-05-14T14:13:45.115Z,24.06
2023-05-14T14:16:19.348Z,23.91
2023-05-14T14:18:46.372Z,23.94
2023-05-14T14:21:13.373Z,23.99
2023-05-14T14:23:40.484Z,23.93
2023-05-14T14:26:07.346Z,23.97
2023-05-14T14:28:34.371Z,23.97
2023-05-14T14:31:01.595Z,24.15
2023-05-14T14:33:29.837Z,24.40
2023-05-14T14:36:00.211Z,24.39
2023-05-14T14:38:27.271Z,24.36
2023-05-14T14:40:54.509Z,24.13
2023-05-14T14:43:24.256Z,24.13
2023-05-14T14:45:53.008Z,24.02
2023-05-14T14:51:06.909Z,24.09
2023-05-14T14:53:34.976Z,24.39
2023-05-14T14:56:02.217Z,24.44
2023-05-14T14:58:29.308Z,24.35
2023-05-14T15:00:57.628Z,24.30
2023-05-14T15:03:25.307Z,24.25
2023-05-14T15:05:53.829Z,24.10
2023-05-14T15:08:24.898Z,24.01
2023-05-14T15:10:52.296Z,24.03
2023-05-14T15:13:19.226Z,24.05
2023-05-14T15:15:47.651Z,24.02
2023-05-14T15:18:14.444Z,23.86
2023-05-14T15:20:41.266Z,23.80
2023-05-14T15:23:08.095Z,23.81
2023-05-14T15:25:37.521Z,23.66
2023-05-14T15:28:06.375Z,23.49
2023-05-14T15:30:33.909Z,23.44
2023-05-14T15:33:01.245Z,23.42
2023-05-14T15:35:27.993Z,23.59
2023-05-14T15:37:57.336Z,23.87
2023-05-14T15:40:24.487Z,24.13
2023-05-14T15:42:52.805Z,24.21
2023-05-14T15:45:19.756Z,24.13
2023-05-14T15:47:46.510Z,23.98
2023-05-14T15:50:14.113Z,23.91
2023-05-14T15:52:41.603Z,23.80
2023-05-14T15:55:08.997Z,23.50
2023-05-14T15:57:36.175Z,23.24
2023-05-14T16:00:14.701Z,23.12
2023-05-14T16:02:42.693Z,22.98
2023-05-14T16:05:09.981Z,22.89
2023-05-14T16:07:37.221Z,22.88
2023-05-14T16:10:06.274Z,22.95
2023-05-14T16:12:33.408Z,22.99
2023-05-14T16:15:02.823Z,23.00
2023-05-14T16:17:31.895Z,22.89
2023-05-14T16:20:01.149Z,22.92
2023-05-14T16:22:29.338Z,23.05
2023-05-14T16:24:56.227Z,23.07
2023-05-14T16:27:23.094Z,23.11
2023-05-14T16:29:49.838Z,22.94
2023-05-14T16:32:16.842Z,22.67
2023-05-14T16:34:49.708Z,22.35
2023-05-14T16:37:18.174Z,21.98
2023-05-14T16:39:48.189Z,21.67
2023-05-14T16:42:15.029Z,21.49
2023-05-14T16:44:41.867Z,21.45
2023-05-14T16:47:08.798Z,21.46
2023-05-14T16:49:38.273Z,21.49
2023-05-14T16:52:05.629Z,21.49
2023-05-14T16:54:34.901Z,21.44
2023-05-14T16:57:06.663Z,21.47
2023-05-14T16:59:36.530Z,21.54
2023-05-14T17:02:03.560Z,21.58
2023-05-14T17:04:33.573Z,21.61
2023-05-14T17:07:01.556Z,21.60
2023-05-14T17:09:28.328Z,21.50
2023-05-14T17:11:55.304Z,21.47
2023-05-14T17:14:22.645Z,21.43
2023-05-14T17:16:52.188Z,21.45
2023-05-14T17:19:22.435Z,21.45
2023-05-14T17:21:49.254Z,21.44
2023-05-14T17:24:16.051Z,21.41
2023-05-14T17:26:43.034Z,21.35
2023-05-14T17:29:13.566Z,21.26
2023-05-14T17:31:40.576Z,21.20
2023-05-14T17:34:07.487Z,21.18
2023-05-14T17:36:34.408Z,21.17
2023-05-14T17:39:01.185Z,21.15
2023-05-14T17:41:28.355Z,21.11
2023-05-14T17:43:55.697Z,21.07
2023-05-14T17:46:23.153Z,21.03
2023-05-14T17:48:50.775Z,21.00
2023-05-14T17:51:17.622Z,20.96
2023-05-14T17:53:44.473Z,20.93
2023-05-14T17:56:12.224Z,20.88
2023-05-14T17:58:39.423Z,20.86
2023-05-14T18:01:06.553Z,20.82
2023-05-14T18:03:33.860Z,20.79
2023-05-14T18:06:00.772Z,20.74
2023-05-14T18:08:29.348Z,20.70
2023-05-14T18:10:58.308Z,20.65
2023-05-14T18:13:25.369Z,20.60
2023-05-14T18:15:54.444Z,20.56
2023-05-14T18:18:21.861Z,20.53
2023-05-14T18:20:52.444Z,20.49
2023-05-14T18:23:24.217Z,20.46
2023-05-14T18:25:51.484Z,20.47
2023-05-14T18:28:21.579Z,20.54
2023-05-14T18:30:51.165Z,20.61
2023-05-14T18:33:19.035Z,20.65
2023-05-14T18:35:46.641Z,20.66
2023-05-14T18:38:14.015Z,20.71
2023-05-14T18:40:44.237Z,20.75
2023-05-14T18:43:13.536Z,20.77
2023-05-14T18:45:41.042Z,20.73
2023-05-14T18:48:08.335Z,20.70
2023-05-14T18:50:36.970Z,20.67
2023-05-14T18:53:05.959Z,20.62
2023-05-14T18:55:38.335Z,20.54
2023-05-14T18:58:06.155Z,20.45
2023-05-14T19:00:33.174Z,20.33
2023-05-14T19:03:01.189Z,20.20
2023-05-14T19:05:28.947Z,20.00
2023-05-14T19:07:58.949Z,19.88
2023-05-14T19:10:27.346Z,19.66
2023-05-14T19:12:54.806Z,19.48
2023-05-14T19:15:23.980Z,19.39
2023-05-14T19:17:52.207Z,19.33
2023-05-14T19:20:24.909Z,19.29
2023-05-14T19:22:57.243Z,19.27
2023-05-14T19:25:24.997Z,19.24
2023-05-14T19:27:54.549Z,19.18
2023-05-14T19:30:23.483Z,19.15
2023-05-14T19:32:51.570Z,19.17
2023-05-14T19:35:29.021Z,19.11
2023-05-14T19:37:56.330Z,19.04
2023-05-14T19:40:23.432Z,19.06
2023-05-14T19:42:50.785Z,19.05
2023-05-14T19:45:17.653Z,19.05
2023-05-14T19:47:44.789Z,19.05
2023-05-14T19:50:14.539Z,19.09
2023-05-14T19:52:42.409Z,19.12
2023-05-14T19:55:16.166Z,19.11
2023-05-14T19:57:45.958Z,19.15
2023-05-14T20:00:13.616Z,19.15
2023-05-14T20:02:41.867Z,19.17
2023-05-14T20:05:12.897Z,19.17
2023-05-14T20:07:41.020Z,19.15
2023-05-14T20:10:08.499Z,19.11
2023-05-14T20:12:35.848Z,19.08
2023-05-14T20:15:12.587Z,19.01
2023-05-14T20:17:40.083Z,18.93
2023-05-14T20:20:08.524Z,18.88
2023-05-14T20:22:35.883Z,18.80
2023-05-14T20:25:02.858Z,18.70
2023-05-14T20:27:31.759Z,18.63
2023-05-14T20:29:59.424Z,18.54
2023-05-14T20:32:27.838Z,18.42
2023-05-14T20:34:55.046Z,18.36
2023-05-14T20:37:22.286Z,18.28
2023-05-14T20:39:49.189Z,18.19
2023-05-14T20:42:16.119Z,18.10
2023-05-14T20:44:54.621Z,17.99
2023-05-14T20:47:26.669Z,17.89
2023-05-14T20:49:57.943Z,17.82
2023-05-14T20:52:25.117Z,17.78
2023-05-14T20:55:05.486Z,17.76
2023-05-14T20:57:48.565Z,17.72
2023-05-14T21:00:16.086Z,17.68
2023-05-14T21:02:43.187Z,17.69
2023-05-14T21:05:10.527Z,17.76
2023-05-14T21:07:37.777Z,17.82
2023-05-14T21:10:06.207Z,17.87
2023-05-14T21:12:33.256Z,17.84
2023-05-14T21:15:00.504Z,17.81
2023-05-14T21:17:27.777Z,17.74
2023-05-14T21:19:54.723Z,17.67
2023-05-14T21:22:22.453Z,17.59
2023-05-14T21:24:51.393Z,17.57
2023-05-14T21:27:24.915Z,17.53
2023-05-14T21:29:52.247Z,17.47
2023-05-14T21:32:20.280Z,17.44
2023-05-14T21:34:48.825Z,17.47
2023-05-14T21:37:15.839Z,17.48
2023-05-14T21:39:42.840Z,17.44
2023-05-14T21:42:10.003Z,17.39
2023-05-14T21:44:38.416Z,17.35
2023-05-14T21:47:10.761Z,17.30
2023-05-14T21:49:38.505Z,17.27
2023-05-14T21:52:06.546Z,17.22
2023-05-14T21:54:33.894Z,17.15
2023-05-14T21:57:01.827Z,17.07
2023-05-14T21:59:28.756Z,17.03
2023-05-14T22:02:06.774Z,17.00
2023-05-14T22:04:36.485Z,16.96
2023-05-14T22:07:03.690Z,16.94
2023-05-14T22:09:32.429Z,16.94
2023-05-14T22:11:59.602Z,16.94
2023-05-14T22:14:29.506Z,16.93
2023-05-14T22:16:56.768Z,16.93
2023-05-14T22:19:23.672Z,16.90
2023-05-14T22:21:54.280Z,16.87
2023-05-14T22:24:21.132Z,16.85
2023-05-14T22:26:49.216Z,16.83
2023-05-14T22:29:16.046Z,16.80
2023-05-14T22:31:42.914Z,16.80
2023-05-14T22:34:11.015Z,16.78
2023-05-14T22:36:37.861Z,16.77
2023-05-14T22:39:04.701Z,16.73
2023-05-14T22:41:31.536Z,16.67
2023-05-14T22:43:58.381Z,16.60
2023-05-14T22:46:25.425Z,16.57
2023-05-14T22:48:52.986Z,16.57
2023-05-14T22:51:19.885Z,16.57
2023-05-14T22:53:47.388Z,16.59
2023-05-14T22:56:17.220Z,16.60
2023-05-14T22:58:44.322Z,16.60
2023-05-14T23:01:11.191Z,16.60
2023-05-14T23:03:38.241Z,16.61
2023-05-14T23:06:05.290Z,16.63
2023-05-14T23:08:31.981Z,16.67
2023-05-14T23:10:59.446Z,16.72
2023-05-14T23:13:26.448Z,16.76
2023-05-14T23:15:53.905Z,16.78
2023-05-14T23:18:21.155Z,16.81
2023-05-14T23:20:50.442Z,16.80
2023-05-14T23:23:17.281Z,16.80
2023-05-14T23:25:44.248Z,16.88
2023-05-14T23:28:11.913Z,16.91
2023-05-14T23:30:38.835Z,16.88
2023-05-14T23:33:05.732Z,16.80
2023-05-14T23:35:37.365Z,16.74
2023-05-14T23:38:07.868Z,16.69
2023-05-14T23:40:34.865Z,16.64
2023-05-14T23:43:02.078Z,16.60
2023-05-14T23:45:31.061Z,16.56
2023-05-14T23:47:58.696Z,16.50
2023-05-14T23:50:25.813Z,16.42
2023-05-14T23:52:55.020Z,16.40
2023-05-14T23:55:22.355Z,16.37
2023-05-14T23:57:51.279Z,16.35
